createdAt,value
2018-05-16T00:00:31.639Z,0.00
2018-05-16T00:01:31.571Z,0.00
2018-05-16T00:02:31.497Z,0.00
2018-05-16T00:03:31.424Z,0.00
2018-05-16T00:04:31.361Z,0.00
2018-05-16T00:05:31.288Z,0.00
2018-05-16T00:06:31.220Z,0.00
2018-05-16T00:07:31.151Z,0.00
2018-05-16T00:08:31.081Z,0.00
2018-05-16T00:09:31.007Z,0.00
2018-05-16T00:10:30.938Z,0.00
2018-05-16T00:11:30.875Z,0.00
2018-05-16T00:12:30.797Z,0.00
2018-05-16T00:13:30.719Z,0.00
2018-05-16T00:14:30.653Z,0.00
2018-05-16T00:15:30.584Z,0.00
2018-05-16T00:16:30.512Z,0.00
2018-05-16T00:17:30.446Z,0.00
2018-05-16T00:18:30.389Z,0.00
2018-05-16T00:19:30.303Z,0.00
2018-05-16T00:20:30.231Z,0.00
2018-05-16T00:21:30.205Z,0.00
2018-05-16T00:22:30.090Z,0.00
2018-05-16T00:23:30.023Z,0.00
2018-05-16T00:24:29.967Z,0.00
2018-05-16T00:25:29.877Z,0.00
2018-05-16T00:26:29.806Z,0.00
2018-05-16T00:27:29.737Z,0.00
2018-05-16T00:28:29.665Z,0.00
2018-05-16T00:29:29.603Z,0.00
2018-05-16T00:30:29.526Z,0.00
2018-05-16T00:31:29.457Z,0.00
2018-05-16T00:32:29.384Z,0.00
2018-05-16T00:33:29.316Z,0.00
2018-05-16T00:34:29.245Z,0.00
2018-05-16T00:35:29.171Z,0.00
2018-05-16T00:36:29.105Z,0.00
2018-05-16T00:37:29.035Z,0.00
2018-05-16T00:38:28.961Z,0.00
2018-05-16T00:39:28.890Z,0.00
2018-05-16T00:40:28.820Z,0.00
2018-05-16T00:41:28.752Z,0.00
2018-05-16T00:42:28.686Z,0.00
2018-05-16T00:43:28.606Z,0.00
2018-05-16T00:44:28.541Z,0.00
2018-05-16T00:45:28.482Z,0.00
2018-05-16T00:46:28.404Z,0.00
2018-05-16T00:47:28.324Z,0.00
2018-05-16T00:48:28.252Z,0.00
2018-05-16T00:49:28.183Z,0.00
2018-05-16T00:50:28.113Z,0.00
2018-05-16T00:51:28.039Z,0.00
2018-05-16T00:52:27.968Z,0.00
2018-05-16T00:53:27.893Z,0.00
2018-05-16T00:54:27.828Z,0.00
2018-05-16T00:55:27.756Z,0.00
2018-05-16T00:56:27.685Z,0.00
2018-05-16T00:57:27.618Z,0.00
2018-05-16T00:58:27.544Z,0.00
2018-05-16T00:59:27.474Z,0.00
2018-05-16T01:00:27.404Z,0.00
2018-05-16T01:01:27.332Z,0.00
2018-05-16T01:02:27.259Z,0.00
2018-05-16T01:03:27.189Z,0.00
2018-05-16T01:04:27.123Z,0.00
2018-05-16T01:05:27.050Z,0.00
2018-05-16T01:06:26.983Z,0.00
2018-05-16T01:07:26.905Z,0.00
2018-05-16T01:08:26.844Z,0.00
2018-05-16T01:09:26.762Z,0.00
2018-05-16T01:10:26.690Z,0.00
2018-05-16T01:11:26.620Z,0.00
2018-05-16T01:12:26.551Z,0.00
2018-05-16T01:13:26.476Z,0.00
2018-05-16T01:14:26.406Z,0.00
2018-05-16T01:15:26.329Z,0.00
2018-05-16T01:16:26.263Z,0.00
2018-05-16T01:17:26.199Z,0.00
2018-05-16T01:18:26.118Z,0.00
2018-05-16T01:19:26.059Z,0.00
2018-05-16T01:20:25.983Z,0.00
2018-05-16T01:21:25.909Z,0.00
2018-05-16T01:22:25.836Z,0.00
2018-05-16T01:23:25.765Z,0.00
2018-05-16T01:24:25.719Z,0.00
2018-05-16T01:25:25.621Z,0.00
2018-05-16T01:26:25.550Z,0.00
2018-05-16T01:27:25.478Z,0.00
2018-05-16T01:28:25.401Z,0.00
2018-05-16T01:29:25.341Z,0.00
2018-05-16T01:30:25.264Z,0.00
2018-05-16T01:31:25.196Z,0.00
2018-05-16T01:32:25.122Z,0.00
2018-05-16T01:33:25.052Z,0.00
2018-05-16T01:34:24.975Z,0.00
2018-05-16T01:35:24.910Z,0.00
2018-05-16T01:36:24.838Z,0.00
2018-05-16T01:37:24.767Z,0.00
2018-05-16T01:38:24.694Z,0.00
2018-05-16T01:39:24.639Z,0.00
2018-05-16T01:40:24.552Z,0.00
2018-05-16T01:41:24.483Z,0.00
2018-05-16T01:42:24.415Z,0.00
2018-05-16T01:43:24.337Z,0.00
2018-05-16T01:44:24.283Z,0.00
2018-05-16T01:45:24.229Z,0.00
2018-05-16T01:46:24.126Z,0.00
2018-05-16T01:47:24.052Z,0.00
2018-05-16T01:48:24.009Z,0.00
2018-05-16T01:49:23.915Z,0.00
2018-05-16T01:50:23.841Z,0.00
2018-05-16T01:51:23.765Z,0.00
2018-05-16T01:52:23.700Z,0.00
2018-05-16T01:53:23.616Z,0.00
2018-05-16T01:54:23.559Z,0.00
2018-05-16T01:55:23.483Z,0.00
2018-05-16T01:56:23.409Z,0.00
2018-05-16T01:57:23.340Z,0.00
2018-05-16T01:58:23.263Z,0.00
2018-05-16T01:59:23.187Z,0.00
2018-05-16T02:00:23.128Z,0.00
2018-05-16T02:01:23.054Z,0.00
2018-05-16T02:02:22.977Z,0.00
2018-05-16T02:03:22.902Z,0.00
2018-05-16T02:04:22.834Z,0.00
2018-05-16T02:05:22.766Z,0.00
2018-05-16T02:06:22.688Z,0.00
2018-05-16T02:07:22.611Z,0.00
2018-05-16T02:08:22.550Z,0.00
2018-05-16T02:09:22.473Z,0.00
2018-05-16T02:10:22.402Z,0.00
2018-05-16T02:11:22.323Z,0.00
2018-05-16T02:12:22.258Z,0.00
2018-05-16T02:13:22.194Z,0.00
2018-05-16T02:14:22.110Z,0.00
2018-05-16T02:15:22.043Z,0.00
2018-05-16T02:16:21.970Z,0.00
2018-05-16T02:17:21.899Z,0.00
2018-05-16T02:18:21.825Z,0.00
2018-05-16T02:19:21.758Z,0.00
2018-05-16T02:20:21.679Z,0.00
2018-05-16T02:21:21.605Z,0.00
2018-05-16T02:22:21.536Z,0.00
2018-05-16T02:23:21.468Z,0.00
2018-05-16T02:24:21.402Z,0.00
2018-05-16T02:25:21.320Z,0.00
2018-05-16T02:26:21.245Z,0.00
2018-05-16T02:27:21.176Z,0.00
2018-05-16T02:28:21.102Z,0.00
2018-05-16T02:29:21.030Z,0.00
2018-05-16T02:30:20.958Z,0.00
2018-05-16T02:31:20.884Z,0.00
2018-05-16T02:32:20.814Z,0.00
2018-05-16T02:33:20.745Z,0.00
2018-05-16T02:34:20.663Z,0.00
2018-05-16T02:35:20.596Z,0.00
2018-05-16T02:36:20.524Z,0.00
2018-05-16T02:37:20.489Z,0.00
2018-05-16T02:38:20.378Z,0.00
2018-05-16T02:39:20.309Z,0.00
2018-05-16T02:40:20.238Z,0.00
2018-05-16T02:41:20.214Z,0.00
2018-05-16T02:42:20.094Z,0.00
2018-05-16T02:43:20.019Z,0.00
2018-05-16T02:44:19.951Z,0.00
2018-05-16T02:45:19.873Z,0.00
2018-05-16T02:46:19.805Z,0.00
2018-05-16T02:47:19.733Z,0.00
2018-05-16T02:48:19.656Z,0.00
2018-05-16T02:49:19.592Z,0.00
2018-05-16T02:50:19.513Z,0.00
2018-05-16T02:51:19.438Z,0.00
2018-05-16T02:52:19.368Z,0.00
2018-05-16T02:53:19.296Z,0.00
2018-05-16T02:54:19.246Z,0.00
2018-05-16T02:55:19.149Z,0.00
2018-05-16T02:56:19.080Z,0.00
2018-05-16T02:57:19.012Z,0.00
2018-05-16T02:58:18.932Z,0.00
2018-05-16T02:59:18.860Z,0.00
2018-05-16T03:00:18.802Z,0.00
2018-05-16T03:01:18.719Z,0.00
2018-05-16T03:02:18.643Z,0.00
2018-05-16T03:03:18.572Z,0.00
2018-05-16T03:04:18.496Z,0.00
2018-05-16T03:05:18.436Z,0.00
2018-05-16T03:06:18.357Z,0.00
2018-05-16T03:07:18.284Z,0.00
2018-05-16T03:08:18.223Z,0.00
2018-05-16T03:09:18.138Z,0.00
2018-05-16T03:10:18.063Z,0.00
2018-05-16T03:11:17.992Z,0.00
2018-05-16T03:12:17.923Z,0.00
2018-05-16T03:13:17.841Z,0.00
2018-05-16T03:14:17.785Z,0.00
2018-05-16T03:15:17.705Z,0.00
2018-05-16T03:16:17.636Z,0.00
2018-05-16T03:17:17.559Z,0.00
2018-05-16T03:18:17.487Z,0.00
2018-05-16T03:19:17.423Z,0.00
2018-05-16T03:20:17.344Z,0.00
2018-05-16T03:21:17.278Z,0.00
2018-05-16T03:22:17.191Z,0.00
2018-05-16T03:23:17.128Z,0.00
2018-05-16T03:24:17.051Z,0.00
2018-05-16T03:25:16.975Z,0.00
2018-05-16T03:26:16.904Z,0.00
2018-05-16T03:27:16.838Z,0.00
2018-05-16T03:28:16.766Z,0.00
2018-05-16T03:29:16.690Z,0.00
2018-05-16T03:30:16.637Z,0.00
2018-05-16T03:31:16.547Z,0.00
2018-05-16T03:32:16.477Z,0.00
2018-05-16T03:33:16.402Z,0.00
2018-05-16T03:34:16.329Z,0.00
2018-05-16T03:35:16.253Z,0.00
2018-05-16T03:36:16.186Z,0.00
2018-05-16T03:37:16.113Z,0.00
2018-05-16T03:38:16.040Z,0.00
2018-05-16T03:39:15.968Z,0.00
2018-05-16T03:40:15.896Z,0.00
2018-05-16T03:41:15.823Z,0.00
2018-05-16T03:42:15.752Z,0.00
2018-05-16T03:43:15.676Z,0.00
2018-05-16T03:44:15.629Z,5.63
2018-05-16T03:45:15.535Z,5.63
2018-05-16T03:46:15.459Z,5.63
2018-05-16T03:47:15.387Z,5.63
2018-05-16T03:48:15.358Z,5.63
2018-05-16T03:49:15.239Z,5.63
2018-05-16T03:50:15.171Z,5.63
2018-05-16T03:51:15.101Z,5.63
2018-05-16T03:52:15.027Z,5.63
2018-05-16T03:53:14.959Z,5.63
2018-05-16T03:54:14.882Z,5.63
2018-05-16T03:55:14.809Z,5.63
2018-05-16T03:56:14.738Z,11.25
2018-05-16T03:57:14.663Z,11.25
2018-05-16T03:58:14.591Z,11.25
2018-05-16T03:59:14.523Z,11.25
2018-05-16T04:00:14.448Z,11.25
2018-05-16T04:01:14.376Z,11.25
2018-05-16T04:02:14.367Z,11.25
2018-05-16T04:03:14.247Z,11.25
2018-05-16T04:04:14.155Z,11.25
2018-05-16T04:05:14.091Z,16.88
2018-05-16T04:06:14.015Z,16.88
2018-05-16T04:07:13.934Z,16.88
2018-05-16T04:08:13.869Z,16.88
2018-05-16T04:09:13.798Z,16.88
2018-05-16T04:10:13.724Z,16.88
2018-05-16T04:11:13.651Z,16.88
2018-05-16T04:12:13.589Z,16.88
2018-05-16T04:13:13.517Z,16.88
2018-05-16T04:14:13.433Z,22.50
2018-05-16T04:15:13.362Z,22.50
2018-05-16T04:16:13.284Z,22.50
2018-05-16T04:17:13.225Z,22.50
2018-05-16T04:18:13.144Z,22.50
2018-05-16T04:19:13.073Z,22.50
2018-05-16T04:20:13.004Z,22.50
2018-05-16T04:21:12.929Z,22.50
2018-05-16T04:22:12.855Z,28.13
2018-05-16T04:23:12.783Z,28.13
2018-05-16T04:24:12.714Z,28.13
2018-05-16T04:25:12.638Z,28.13
2018-05-16T04:26:12.578Z,28.13
2018-05-16T04:27:12.494Z,28.13
2018-05-16T04:28:12.421Z,28.13
2018-05-16T04:29:12.355Z,28.13
2018-05-16T04:30:12.280Z,33.75
2018-05-16T04:31:12.202Z,33.75
2018-05-16T04:32:12.131Z,33.75
2018-05-16T04:33:12.065Z,33.75
2018-05-16T04:34:11.985Z,33.75
2018-05-16T04:35:11.927Z,33.75
2018-05-16T04:36:11.861Z,33.75
2018-05-16T04:37:11.772Z,39.38
2018-05-16T04:38:11.697Z,39.38
2018-05-16T04:39:11.627Z,39.38
2018-05-16T04:40:11.559Z,39.38
2018-05-16T04:41:11.480Z,39.38
2018-05-16T04:42:11.423Z,45.00
2018-05-16T04:43:11.334Z,45.00
2018-05-16T04:44:11.263Z,45.00
2018-05-16T04:45:11.186Z,50.63
2018-05-16T04:46:11.210Z,50.63
2018-05-16T04:47:11.085Z,50.63
2018-05-16T04:48:10.981Z,56.25
2018-05-16T04:49:10.902Z,56.25
2018-05-16T04:50:10.831Z,61.88
2018-05-16T04:51:10.755Z,61.88
2018-05-16T04:52:10.684Z,67.50
2018-05-16T04:53:10.617Z,67.50
2018-05-16T04:54:10.532Z,67.50
2018-05-16T04:55:10.466Z,67.50
2018-05-16T04:56:10.407Z,67.50
2018-05-16T04:57:10.324Z,67.50
2018-05-16T04:58:10.249Z,67.50
2018-05-16T04:59:10.198Z,67.50
2018-05-16T05:00:10.108Z,67.50
2018-05-16T05:01:10.032Z,67.50
2018-05-16T05:02:09.964Z,67.50
2018-05-16T05:03:09.887Z,67.50
2018-05-16T05:04:09.812Z,67.50
2018-05-16T05:05:09.744Z,67.50
2018-05-16T05:06:09.671Z,67.50
2018-05-16T05:07:09.600Z,61.88
2018-05-16T05:08:09.529Z,61.88
2018-05-16T05:09:09.463Z,56.25
2018-05-16T05:10:09.385Z,50.63
2018-05-16T05:11:09.314Z,56.25
2018-05-16T05:12:09.238Z,61.88
2018-05-16T05:13:09.168Z,67.50
2018-05-16T05:14:09.093Z,67.50
2018-05-16T05:15:09.022Z,67.50
2018-05-16T05:16:08.959Z,67.50
2018-05-16T05:17:08.877Z,73.13
2018-05-16T05:18:08.904Z,73.13
2018-05-16T05:19:08.740Z,73.13
2018-05-16T05:20:08.661Z,73.13
2018-05-16T05:21:08.585Z,67.50
2018-05-16T05:22:08.517Z,73.13
2018-05-16T05:23:08.446Z,73.13
2018-05-16T05:24:08.406Z,73.13
2018-05-16T05:25:08.307Z,73.13
2018-05-16T05:26:08.238Z,73.13
2018-05-16T05:27:08.157Z,73.13
2018-05-16T05:28:08.084Z,78.75
2018-05-16T05:29:08.012Z,73.13
2018-05-16T05:30:07.939Z,73.13
2018-05-16T05:31:07.870Z,78.75
2018-05-16T05:32:07.792Z,84.38
2018-05-16T05:33:07.725Z,84.38
2018-05-16T05:34:07.649Z,84.38
2018-05-16T05:35:07.586Z,84.38
2018-05-16T05:36:07.508Z,78.75
2018-05-16T05:37:07.431Z,78.75
2018-05-16T05:38:07.376Z,84.38
2018-05-16T05:39:07.292Z,84.38
2018-05-16T05:40:07.224Z,78.75
2018-05-16T05:41:07.147Z,78.75
2018-05-16T05:42:07.081Z,78.75
2018-05-16T05:43:07.002Z,78.75
2018-05-16T05:44:06.939Z,73.13
2018-05-16T05:45:06.858Z,73.13
2018-05-16T05:46:06.786Z,78.75
2018-05-16T05:47:06.717Z,78.75
2018-05-16T05:48:06.645Z,78.75
2018-05-16T05:49:06.599Z,78.75
2018-05-16T05:50:06.501Z,78.75
2018-05-16T05:51:06.431Z,84.38
2018-05-16T05:52:06.363Z,78.75
2018-05-16T05:53:06.299Z,78.75
2018-05-16T05:54:06.223Z,78.75
2018-05-16T05:55:06.150Z,84.38
2018-05-16T05:56:06.069Z,84.38
2018-05-16T05:57:05.999Z,84.38
2018-05-16T05:58:05.924Z,84.38
2018-05-16T05:59:05.859Z,84.38
2018-05-16T06:00:05.822Z,84.38
2018-05-16T06:01:05.711Z,84.38
2018-05-16T06:02:05.644Z,84.38
2018-05-16T06:03:05.573Z,84.38
2018-05-16T06:04:05.497Z,84.38
2018-05-16T06:05:05.427Z,84.38
2018-05-16T06:06:05.350Z,90.00
2018-05-16T06:07:05.274Z,84.38
2018-05-16T06:08:05.228Z,84.38
2018-05-16T06:09:05.143Z,78.75
2018-05-16T06:10:05.080Z,90.00
2018-05-16T06:11:04.991Z,90.00
2018-05-16T06:12:04.924Z,90.00
2018-05-16T06:13:04.854Z,84.38
2018-05-16T06:14:04.782Z,90.00
2018-05-16T06:15:04.706Z,90.00
2018-05-16T06:16:04.637Z,78.75
2018-05-16T06:17:04.567Z,90.00
2018-05-16T06:18:04.497Z,90.00
2018-05-16T06:19:04.421Z,90.00
2018-05-16T06:20:04.378Z,90.00
2018-05-16T06:21:04.280Z,90.00
2018-05-16T06:22:04.210Z,90.00
2018-05-16T06:23:04.136Z,90.00
2018-05-16T06:24:04.064Z,90.00
2018-05-16T06:25:04.000Z,95.63
2018-05-16T06:26:03.923Z,101.25
2018-05-16T06:27:03.857Z,106.88
2018-05-16T06:28:03.775Z,106.88
2018-05-16T06:29:03.711Z,112.50
2018-05-16T06:30:03.634Z,101.25
2018-05-16T06:31:03.564Z,112.50
2018-05-16T06:32:03.492Z,112.50
2018-05-16T06:33:03.419Z,112.50
2018-05-16T06:34:03.349Z,101.25
2018-05-16T06:35:03.273Z,101.25
2018-05-16T06:36:03.213Z,101.25
2018-05-16T06:37:03.136Z,101.25
2018-05-16T06:38:03.065Z,101.25
2018-05-16T06:39:02.995Z,95.63
2018-05-16T06:40:02.926Z,106.88
2018-05-16T06:41:02.851Z,118.13
2018-05-16T06:42:02.785Z,106.88
2018-05-16T06:43:02.708Z,106.88
2018-05-16T06:44:02.638Z,101.25
2018-05-16T06:45:02.581Z,112.50
2018-05-16T06:46:02.497Z,106.88
2018-05-16T06:47:02.422Z,101.25
2018-05-16T06:48:02.349Z,95.63
2018-05-16T06:49:02.283Z,95.63
2018-05-16T06:50:02.209Z,95.63
2018-05-16T06:51:02.212Z,95.63
2018-05-16T06:52:02.067Z,106.88
2018-05-16T06:53:01.995Z,101.25
2018-05-16T06:54:01.923Z,101.25
2018-05-16T06:55:01.853Z,106.88
2018-05-16T06:56:01.794Z,129.38
2018-05-16T06:57:01.712Z,157.50
2018-05-16T06:58:01.640Z,123.75
2018-05-16T06:59:01.585Z,112.50
2018-05-16T07:00:01.499Z,112.50
2018-05-16T07:01:01.428Z,106.88
2018-05-16T07:02:01.358Z,101.25
2018-05-16T07:03:01.287Z,101.25
2018-05-16T07:04:01.255Z,106.88
2018-05-16T07:05:01.144Z,106.88
2018-05-16T07:06:01.073Z,95.63
2018-05-16T07:07:01.000Z,101.25
2018-05-16T07:08:00.932Z,118.13
2018-05-16T07:09:00.863Z,112.50
2018-05-16T07:10:00.795Z,118.13
2018-05-16T07:11:00.718Z,135.00
2018-05-16T07:12:00.648Z,118.13
2018-05-16T07:13:00.580Z,106.88
2018-05-16T07:14:00.506Z,106.88
2018-05-16T07:15:00.453Z,112.50
2018-05-16T07:16:00.365Z,118.13
2018-05-16T07:17:00.294Z,118.13
2018-05-16T07:18:00.236Z,112.50
2018-05-16T07:19:00.153Z,112.50
2018-05-16T07:20:00.086Z,106.88
2018-05-16T07:21:00.011Z,106.88
2018-05-16T07:21:59.941Z,106.88
2018-05-16T07:22:59.868Z,106.88
2018-05-16T07:23:59.800Z,101.25
2018-05-16T07:24:59.735Z,106.88
2018-05-16T07:25:59.660Z,106.88
2018-05-16T07:26:59.590Z,106.88
2018-05-16T07:27:59.517Z,106.88
2018-05-16T07:28:59.449Z,106.88
2018-05-16T07:29:59.382Z,106.88
2018-05-16T07:30:59.312Z,106.88
2018-05-16T07:31:59.234Z,106.88
2018-05-16T07:32:59.163Z,106.88
2018-05-16T07:33:59.095Z,106.88
2018-05-16T07:34:59.039Z,112.50
2018-05-16T07:35:58.952Z,112.50
2018-05-16T07:36:58.956Z,112.50
2018-05-16T07:37:58.817Z,118.13
2018-05-16T07:38:58.742Z,112.50
2018-05-16T07:39:58.677Z,112.50
2018-05-16T07:40:58.602Z,112.50
2018-05-16T07:41:58.531Z,118.13
2018-05-16T07:42:58.469Z,123.75
2018-05-16T07:43:58.388Z,123.75
2018-05-16T07:44:58.319Z,123.75
2018-05-16T07:45:58.257Z,118.13
2018-05-16T07:46:58.186Z,135.00
2018-05-16T07:47:58.109Z,129.38
2018-05-16T07:48:58.038Z,123.75
2018-05-16T07:49:57.974Z,118.13
2018-05-16T07:50:57.899Z,118.13
2018-05-16T07:51:57.830Z,118.13
2018-05-16T07:52:57.761Z,118.13
2018-05-16T07:53:57.687Z,123.75
2018-05-16T07:54:57.633Z,123.75
2018-05-16T07:55:57.642Z,123.75
2018-05-16T07:56:57.480Z,123.75
2018-05-16T07:57:57.428Z,123.75
2018-05-16T07:58:57.337Z,123.75
2018-05-16T07:59:57.266Z,118.13
2018-05-16T08:00:57.196Z,118.13
2018-05-16T08:01:57.127Z,123.75
2018-05-16T08:02:57.060Z,123.75
2018-05-16T08:03:56.987Z,129.38
2018-05-16T08:04:56.920Z,129.38
2018-05-16T08:05:56.853Z,129.38
2018-05-16T08:06:56.778Z,135.00
2018-05-16T08:07:56.704Z,135.00
2018-05-16T08:08:56.669Z,140.63
2018-05-16T08:09:56.574Z,146.25
2018-05-16T08:10:56.492Z,174.38
2018-05-16T08:11:56.427Z,185.63
2018-05-16T08:12:56.362Z,151.88
2018-05-16T08:13:56.292Z,196.88
2018-05-16T08:14:56.223Z,196.88
2018-05-16T08:15:56.157Z,168.75
2018-05-16T08:16:56.079Z,180.00
2018-05-16T08:17:56.010Z,208.13
2018-05-16T08:18:55.939Z,157.50
2018-05-16T08:19:55.874Z,146.25
2018-05-16T08:20:55.809Z,140.63
2018-05-16T08:21:55.731Z,135.00
2018-05-16T08:22:55.668Z,185.63
2018-05-16T08:23:55.594Z,219.38
2018-05-16T08:24:55.522Z,241.88
2018-05-16T08:25:55.457Z,174.38
2018-05-16T08:26:55.385Z,196.88
2018-05-16T08:27:55.316Z,191.25
2018-05-16T08:28:55.255Z,219.38
2018-05-16T08:29:55.177Z,253.13
2018-05-16T08:30:55.107Z,253.13
2018-05-16T08:31:55.045Z,247.50
2018-05-16T08:32:54.974Z,236.25
2018-05-16T08:33:54.903Z,275.63
2018-05-16T08:34:54.831Z,253.13
2018-05-16T08:35:54.762Z,320.63
2018-05-16T08:36:54.694Z,303.75
2018-05-16T08:37:54.632Z,320.63
2018-05-16T08:38:54.556Z,309.38
2018-05-16T08:39:54.491Z,309.38
2018-05-16T08:40:54.418Z,309.38
2018-05-16T08:41:54.349Z,309.38
2018-05-16T08:42:54.372Z,298.13
2018-05-16T08:43:54.209Z,303.75
2018-05-16T08:44:54.149Z,354.38
2018-05-16T08:45:54.080Z,416.25
2018-05-16T08:46:54.011Z,405.00
2018-05-16T08:47:53.933Z,354.38
2018-05-16T08:48:53.871Z,326.25
2018-05-16T08:49:53.801Z,371.25
2018-05-16T08:50:53.741Z,331.88
2018-05-16T08:51:53.663Z,315.00
2018-05-16T08:52:53.600Z,292.50
2018-05-16T08:53:53.527Z,303.75
2018-05-16T08:54:53.463Z,365.63
2018-05-16T08:55:53.421Z,371.25
2018-05-16T08:56:53.325Z,382.50
2018-05-16T08:57:53.257Z,376.88
2018-05-16T08:58:53.193Z,331.88
2018-05-16T08:59:53.121Z,461.25
2018-05-16T09:00:53.056Z,427.50
2018-05-16T09:01:52.989Z,433.13
2018-05-16T09:02:52.919Z,399.38
2018-05-16T09:03:52.858Z,421.88
2018-05-16T09:04:52.784Z,416.25
2018-05-16T09:05:52.717Z,489.38
2018-05-16T09:06:52.653Z,590.63
2018-05-16T09:07:52.583Z,427.50
2018-05-16T09:08:52.514Z,388.13
2018-05-16T09:09:52.451Z,585.00
2018-05-16T09:10:52.381Z,410.63
2018-05-16T09:11:52.323Z,506.25
2018-05-16T09:12:52.250Z,433.13
2018-05-16T09:13:52.178Z,450.00
2018-05-16T09:14:52.115Z,450.00
2018-05-16T09:15:52.049Z,326.25
2018-05-16T09:16:51.983Z,303.75
2018-05-16T09:17:51.917Z,495.00
2018-05-16T09:18:51.854Z,309.38
2018-05-16T09:19:51.781Z,219.38
2018-05-16T09:20:51.719Z,185.63
2018-05-16T09:21:51.654Z,230.63
2018-05-16T09:22:51.590Z,680.63
2018-05-16T09:23:51.522Z,421.88
2018-05-16T09:24:51.456Z,652.50
2018-05-16T09:25:51.389Z,652.50
2018-05-16T09:26:51.324Z,466.88
2018-05-16T09:27:51.261Z,348.75
2018-05-16T09:28:51.194Z,500.63
2018-05-16T09:29:51.129Z,669.38
2018-05-16T09:30:51.071Z,703.13
2018-05-16T09:31:51.003Z,691.88
2018-05-16T09:32:50.969Z,675.00
2018-05-16T09:33:50.871Z,630.00
2018-05-16T09:34:50.806Z,556.88
2018-05-16T09:35:50.744Z,618.75
2018-05-16T09:36:50.681Z,500.63
2018-05-16T09:37:50.613Z,658.13
2018-05-16T09:38:50.555Z,658.13
2018-05-16T09:39:50.499Z,703.13
2018-05-16T09:40:50.441Z,624.38
2018-05-16T09:41:50.374Z,641.25
2018-05-16T09:42:50.307Z,511.88
2018-05-16T09:43:50.236Z,478.13
2018-05-16T09:44:50.174Z,551.25
2018-05-16T09:45:50.166Z,877.50
2018-05-16T09:46:50.051Z,821.25
2018-05-16T09:47:49.978Z,573.75
2018-05-16T09:48:49.928Z,618.75
2018-05-16T09:49:49.859Z,1288.13
2018-05-16T09:50:49.794Z,1305.00
2018-05-16T09:51:49.732Z,1130.63
2018-05-16T09:52:49.658Z,1130.63
2018-05-16T09:53:49.598Z,776.25
2018-05-16T09:54:49.544Z,646.88
2018-05-16T09:55:49.476Z,1141.88
2018-05-16T09:56:49.430Z,585.00
2018-05-16T09:57:49.348Z,489.38
2018-05-16T09:58:49.284Z,540.00
2018-05-16T09:59:49.224Z,421.88
2018-05-16T10:00:49.160Z,427.50
2018-05-16T10:01:49.093Z,461.25
2018-05-16T10:02:49.045Z,495.00
2018-05-16T10:03:48.967Z,382.50
2018-05-16T10:04:48.912Z,382.50
2018-05-16T10:05:48.843Z,405.00
2018-05-16T10:06:48.774Z,405.00
2018-05-16T10:07:48.711Z,444.38
2018-05-16T10:08:48.670Z,1361.25
2018-05-16T10:09:48.676Z,855.00
2018-05-16T10:10:48.523Z,658.13
2018-05-16T10:11:48.457Z,933.75
2018-05-16T10:12:48.407Z,1023.75
2018-05-16T10:13:48.323Z,1040.63
2018-05-16T10:14:48.256Z,1085.63
2018-05-16T10:15:48.196Z,658.13
2018-05-16T10:16:48.132Z,905.63
2018-05-16T10:17:48.067Z,697.50
2018-05-16T10:18:48.005Z,669.38
2018-05-16T10:19:47.943Z,691.88
2018-05-16T10:20:47.865Z,540.00
2018-05-16T10:21:47.806Z,466.88
2018-05-16T10:22:47.745Z,438.75
2018-05-16T10:23:47.699Z,360.00
2018-05-16T10:24:47.613Z,348.75
2018-05-16T10:25:47.569Z,376.88
2018-05-16T10:26:47.484Z,438.75
2018-05-16T10:27:47.419Z,478.13
2018-05-16T10:28:47.356Z,478.13
2018-05-16T10:29:47.291Z,438.75
2018-05-16T10:30:47.238Z,450.00
2018-05-16T10:31:47.160Z,393.75
2018-05-16T10:32:47.101Z,320.63
2018-05-16T10:33:47.026Z,320.63
2018-05-16T10:34:46.964Z,343.13
2018-05-16T10:35:46.896Z,292.50
2018-05-16T10:36:46.831Z,191.25
2018-05-16T10:37:46.765Z,135.00
2018-05-16T10:38:46.697Z,101.25
2018-05-16T10:39:46.637Z,90.00
2018-05-16T10:40:46.566Z,78.75
2018-05-16T10:41:46.507Z,67.50
2018-05-16T10:42:46.436Z,61.88
2018-05-16T10:43:46.386Z,50.63
2018-05-16T10:44:46.296Z,39.38
2018-05-16T10:45:46.238Z,33.75
2018-05-16T10:46:46.170Z,33.75
2018-05-16T10:47:46.098Z,33.75
2018-05-16T10:48:46.039Z,39.38
2018-05-16T10:49:45.969Z,50.63
2018-05-16T10:50:45.901Z,61.88
2018-05-16T10:51:45.830Z,90.00
2018-05-16T10:52:45.771Z,146.25
2018-05-16T10:53:45.697Z,180.00
2018-05-16T10:54:45.646Z,202.50
2018-05-16T10:55:45.563Z,180.00
2018-05-16T10:56:45.513Z,151.88
2018-05-16T10:57:45.426Z,129.38
2018-05-16T10:58:45.366Z,118.13
2018-05-16T10:59:45.622Z,101.25
2018-05-16T11:00:45.226Z,84.38
2018-05-16T11:01:45.162Z,67.50
2018-05-16T11:02:45.087Z,61.88
2018-05-16T11:03:45.026Z,56.25
2018-05-16T11:04:44.968Z,50.63
2018-05-16T11:05:44.884Z,50.63
2018-05-16T11:06:44.812Z,45.00
2018-05-16T11:07:44.745Z,45.00
2018-05-16T11:08:44.675Z,50.63
2018-05-16T11:09:44.625Z,50.63
2018-05-16T11:10:44.533Z,56.25
2018-05-16T11:11:44.468Z,50.63
2018-05-16T11:12:44.402Z,45.00
2018-05-16T11:13:44.338Z,56.25
2018-05-16T11:14:44.256Z,73.13
2018-05-16T11:15:44.200Z,84.38
2018-05-16T11:16:44.128Z,90.00
2018-05-16T11:17:44.057Z,90.00
2018-05-16T11:18:43.991Z,95.63
2018-05-16T11:19:43.986Z,95.63
2018-05-16T11:20:43.884Z,90.00
2018-05-16T11:21:43.779Z,95.63
2018-05-16T11:22:43.712Z,95.63
2018-05-16T11:23:43.639Z,106.88
2018-05-16T11:24:43.572Z,123.75
2018-05-16T11:25:43.499Z,140.63
2018-05-16T11:26:43.437Z,168.75
2018-05-16T11:27:43.362Z,208.13
2018-05-16T11:28:43.295Z,270.00
2018-05-16T11:29:43.231Z,331.88
2018-05-16T11:30:43.161Z,382.50
2018-05-16T11:31:43.086Z,410.63
2018-05-16T11:32:43.027Z,421.88
2018-05-16T11:33:42.944Z,388.13
2018-05-16T11:34:42.887Z,405.00
2018-05-16T11:35:42.811Z,410.63
2018-05-16T11:36:42.830Z,489.38
2018-05-16T11:37:42.672Z,568.13
2018-05-16T11:38:42.603Z,607.50
2018-05-16T11:39:42.535Z,601.88
2018-05-16T11:40:42.473Z,607.50
2018-05-16T11:41:42.397Z,601.88
2018-05-16T11:42:42.329Z,624.38
2018-05-16T11:43:42.260Z,624.38
2018-05-16T11:44:42.191Z,646.88
2018-05-16T11:45:42.121Z,658.13
2018-05-16T11:46:42.054Z,652.50
2018-05-16T11:47:41.988Z,641.25
2018-05-16T11:48:41.965Z,551.25
2018-05-16T11:49:41.849Z,450.00
2018-05-16T11:50:41.787Z,416.25
2018-05-16T11:51:41.714Z,360.00
2018-05-16T11:52:41.644Z,315.00
2018-05-16T11:53:41.582Z,309.38
2018-05-16T11:54:41.512Z,303.75
2018-05-16T11:55:41.463Z,292.50
2018-05-16T11:56:41.380Z,303.75
2018-05-16T11:57:41.321Z,275.63
2018-05-16T11:58:41.240Z,275.63
2018-05-16T11:59:41.175Z,286.88
2018-05-16T12:00:41.106Z,292.50
2018-05-16T12:01:41.037Z,286.88
2018-05-16T12:02:40.971Z,275.63
2018-05-16T12:03:40.901Z,270.00
2018-05-16T12:04:40.828Z,275.63
2018-05-16T12:05:40.776Z,241.88
2018-05-16T12:06:40.700Z,225.00
2018-05-16T12:07:40.631Z,208.13
2018-05-16T12:08:40.632Z,191.25
2018-05-16T12:09:40.500Z,191.25
2018-05-16T12:10:40.434Z,202.50
2018-05-16T12:11:40.364Z,225.00
2018-05-16T12:12:40.297Z,241.88
2018-05-16T12:13:40.229Z,247.50
2018-05-16T12:14:40.257Z,264.38
2018-05-16T12:15:40.090Z,320.63
2018-05-16T12:16:40.025Z,365.63
2018-05-16T12:17:39.950Z,360.00
2018-05-16T12:18:39.886Z,354.38
2018-05-16T12:19:39.821Z,376.88
2018-05-16T12:20:39.754Z,427.50
2018-05-16T12:21:39.716Z,376.88
2018-05-16T12:22:39.614Z,320.63
2018-05-16T12:23:39.550Z,309.38
2018-05-16T12:24:39.483Z,320.63
2018-05-16T12:25:39.414Z,376.88
2018-05-16T12:26:39.345Z,365.63
2018-05-16T12:27:39.278Z,326.25
2018-05-16T12:28:39.208Z,298.13
2018-05-16T12:29:39.137Z,275.63
2018-05-16T12:30:39.072Z,247.50
2018-05-16T12:31:39.008Z,253.13
2018-05-16T12:32:38.929Z,281.25
2018-05-16T12:33:38.868Z,309.38
2018-05-16T12:34:38.804Z,303.75
2018-05-16T12:35:38.727Z,281.25
2018-05-16T12:36:38.750Z,286.88
2018-05-16T12:37:38.593Z,281.25
2018-05-16T12:38:38.533Z,264.38
2018-05-16T12:39:38.460Z,270.00
2018-05-16T12:40:38.402Z,309.38
2018-05-16T12:41:38.327Z,309.38
2018-05-16T12:42:38.254Z,281.25
2018-05-16T12:43:38.187Z,258.75
2018-05-16T12:44:38.123Z,225.00
2018-05-16T12:45:38.055Z,230.63
2018-05-16T12:46:38.078Z,208.13
2018-05-16T12:47:37.919Z,196.88